sensor_id;sensor_type;location;lat;lon;timestamp;pressure;altitude;pressure_sealevel;temperature;humidity
29879;BME280;16752;53.364;-1.488;2023-03-20T00:02:27;100307.28;;;15.36;44.05
29879;BME280;16752;53.364;-1.488;2023-03-20T00:05:20;100151.94;;;14.09;44.62
29879;BME280;16752;53.364;-1.488;2023-03-20T00:08:05;100240.22;;;14.77;44.54
29879;BME280;16752;53.364;-1.488;2023-03-20T00:10:50;100203.09;;;13.74;46.42
29879;BME280;16752;53.364;-1.488;2023-03-20T00:13:35;100193.13;;;14.31;45.29
29879;BME280;16752;53.364;-1.488;2023-03-20T00:16:20;100113.91;;;14.02;44.90
29879;BME280;16752;53.364;-1.488;2023-03-20T00:19:21;100150.88;;;14.12;45.20
29879;BME280;16752;53.364;-1.488;2023-03-20T00:22:10;100237.66;;;14.45;46.15
29879;BME280;16752;53.364;-1.488;2023-03-20T00:25:00;100128.78;;;12.40;49.17
29879;BME280;16752;53.364;-1.488;2023-03-20T00:27:50;100190.63;;;12.55;50.52
29879;BME280;16752;53.364;-1.488;2023-03-20T00:30:34;100283.91;;;13.07;51.10
29879;BME280;16752;53.364;-1.488;2023-03-20T00:33:19;100224.69;;;12.79;50.95
29879;BME280;16752;53.364;-1.488;2023-03-20T00:36:03;100222.94;;;13.35;49.68
29879;BME280;16752;53.364;-1.488;2023-03-20T00:38:49;100186.13;;;13.99;47.37
29879;BME280;16752;53.364;-1.488;2023-03-20T00:44:35;100229.28;;;13.33;49.83
29879;BME280;16752;53.364;-1.488;2023-03-20T00:47:27;100072.88;;;12.49;50.38
29879;BME280;16752;53.364;-1.488;2023-03-20T00:50:21;100099.84;;;12.51;50.63
29879;BME280;16752;53.364;-1.488;2023-03-20T00:53:12;100265.81;;;14.13;49.85
29879;BME280;16752;53.364;-1.488;2023-03-20T00:55:56;100122.69;;;13.50;49.04
29879;BME280;16752;53.364;-1.488;2023-03-20T00:58:41;100166.84;;;13.12;50.97
29879;BME280;16752;53.364;-1.488;2023-03-20T01:01:25;100160.84;;;13.76;49.67
29879;BME280;16752;53.364;-1.488;2023-03-20T01:04:15;100256.41;;;14.73;48.02
29879;BME280;16752;53.364;-1.488;2023-03-20T01:06:59;100252.09;;;13.43;51.99
29879;BME280;16752;53.364;-1.488;2023-03-20T01:09:43;100208.44;;;13.84;50.61
29879;BME280;16752;53.364;-1.488;2023-03-20T01:12:40;100080.38;;;12.76;50.61
29879;BME280;16752;53.364;-1.488;2023-03-20T01:15:26;100154.72;;;14.07;49.37
29879;BME280;16752;53.364;-1.488;2023-03-20T01:18:15;100155.06;;;12.73;52.54
29879;BME280;16752;53.364;-1.488;2023-03-20T01:20:59;100129.69;;;13.28;50.57
29879;BME280;16752;53.364;-1.488;2023-03-20T01:23:47;100184.19;;;14.54;48.52
29879;BME280;16752;53.364;-1.488;2023-03-20T01:26:39;100142.38;;;13.55;50.32
29879;BME280;16752;53.364;-1.488;2023-03-20T01:29:25;100137.34;;;12.98;51.93
29879;BME280;16752;53.364;-1.488;2023-03-20T01:32:18;100071.81;;;11.72;53.77
29879;BME280;16752;53.364;-1.488;2023-03-20T01:35:11;100125.75;;;12.33;53.08
29879;BME280;16752;53.364;-1.488;2023-03-20T01:37:55;100184.09;;;13.71;49.61
29879;BME280;16752;53.364;-1.488;2023-03-20T01:40:59;100231.16;;;13.96;50.59
29879;BME280;16752;53.364;-1.488;2023-03-20T01:43:46;100167.13;;;13.96;49.42
29879;BME280;16752;53.364;-1.488;2023-03-20T01:46:41;100071.22;;;13.25;49.98
29879;BME280;16752;53.364;-1.488;2023-03-20T01:52:14;100068.91;;;13.84;47.94
29879;BME280;16752;53.364;-1.488;2023-03-20T01:54:59;100126.34;;;14.42;47.47
29879;BME280;16752;53.364;-1.488;2023-03-20T01:57:47;100122.63;;;14.75;46.60
29879;BME280;16752;53.364;-1.488;2023-03-20T02:00:31;100217.34;;;13.72;50.50
29879;BME280;16752;53.364;-1.488;2023-03-20T02:03:17;100146.44;;;13.27;51.47
29879;BME280;16752;53.364;-1.488;2023-03-20T02:06:01;100059.50;;;13.18;49.81
29879;BME280;16752;53.364;-1.488;2023-03-20T02:08:51;100045.66;;;13.48;49.50
29879;BME280;16752;53.364;-1.488;2023-03-20T02:11:41;100132.91;;;14.26;48.77
29879;BME280;16752;53.364;-1.488;2023-03-20T02:14:27;100116.94;;;13.97;49.14
29879;BME280;16752;53.364;-1.488;2023-03-20T02:17:11;100199.34;;;14.09;50.24
29879;BME280;16752;53.364;-1.488;2023-03-20T02:45:16;100076.47;;;13.98;49.56
29879;BME280;16752;53.364;-1.488;2023-03-20T02:51:34;100164.69;;;15.07;48.68
29879;BME280;16752;53.364;-1.488;2023-03-20T02:54:40;100045.16;;;14.56;48.41
29879;BME280;16752;53.364;-1.488;2023-03-20T02:57:56;99963.72;;;14.13;47.82
29879;BME280;16752;53.364;-1.488;2023-03-20T03:00:50;100010.06;;;14.25;48.41
29879;BME280;16752;53.364;-1.488;2023-03-20T03:03:43;100069.47;;;14.70;48.10
29879;BME280;16752;53.364;-1.488;2023-03-20T03:06:35;100063.25;;;13.04;51.79
29879;BME280;16752;53.364;-1.488;2023-03-20T03:09:34;100147.19;;;14.03;52.24
29879;BME280;16752;53.364;-1.488;2023-03-20T03:12:39;100056.91;;;13.50;52.34
29879;BME280;16752;53.364;-1.488;2023-03-20T03:15:27;99994.13;;;14.27;49.08
29879;BME280;16752;53.364;-1.488;2023-03-20T03:18:18;100053.16;;;14.45;49.22
29879;BME280;16752;53.364;-1.488;2023-03-20T03:21:05;100098.75;;;14.66;49.69
29879;BME280;16752;53.364;-1.488;2023-03-20T03:23:52;100072.44;;;13.09;53.55
29879;BME280;16752;53.364;-1.488;2023-03-20T03:26:38;100035.22;;;14.08;50.49
29879;BME280;16752;53.364;-1.488;2023-03-20T03:29:24;100061.47;;;14.81;49.00
29879;BME280;16752;53.364;-1.488;2023-03-20T03:32:25;100067.41;;;14.43;50.39
29879;BME280;16752;53.364;-1.488;2023-03-20T03:35:15;100092.75;;;15.05;49.14
29879;BME280;16752;53.364;-1.488;2023-03-20T03:38:05;100034.47;;;14.27;50.37
29879;BME280;16752;53.364;-1.488;2023-03-20T03:47:34;100090.50;;;14.50;50.67
29879;BME280;16752;53.364;-1.488;2023-03-20T03:50:24;100054.56;;;13.98;51.88
29879;BME280;16752;53.364;-1.488;2023-03-20T03:53:11;99967.19;;;13.21;52.37
29879;BME280;16752;53.364;-1.488;2023-03-20T03:56:00;100076.25;;;14.62;50.96
29879;BME280;16752;53.364;-1.488;2023-03-20T03:58:48;100112.94;;;14.75;51.58
29879;BME280;16752;53.364;-1.488;2023-03-20T04:01:35;100050.66;;;14.44;51.17
29879;BME280;16752;53.364;-1.488;2023-03-20T04:04:20;100099.34;;;14.19;52.35
29879;BME280;16752;53.364;-1.488;2023-03-20T04:07:05;100034.78;;;13.83;52.83
29879;BME280;16752;53.364;-1.488;2023-03-20T04:09:49;100088.88;;;14.59;51.77
29879;BME280;16752;53.364;-1.488;2023-03-20T04:12:38;100068.78;;;14.67;50.67
29879;BME280;16752;53.364;-1.488;2023-03-20T04:15:23;100031.84;;;13.34;53.76
29879;BME280;16752;53.364;-1.488;2023-03-20T04:18:14;100029.78;;;13.80;52.63
29879;BME280;16752;53.364;-1.488;2023-03-20T04:20:59;100066.38;;;13.83;53.22
29879;BME280;16752;53.364;-1.488;2023-03-20T04:23:44;100066.41;;;14.34;52.01
29879;BME280;16752;53.364;-1.488;2023-03-20T04:26:28;100056.94;;;15.02;50.17
29879;BME280;16752;53.364;-1.488;2023-03-20T04:29:12;100051.84;;;14.60;51.21
29879;BME280;16752;53.364;-1.488;2023-03-20T04:31:57;100083.06;;;14.65;51.25
29879;BME280;16752;53.364;-1.488;2023-03-20T04:34:42;100033.75;;;14.46;51.12
29879;BME280;16752;53.364;-1.488;2023-03-20T04:37:26;100022.28;;;13.75;52.88
29879;BME280;16752;53.364;-1.488;2023-03-20T04:40:10;100051.38;;;13.21;55.32
29879;BME280;16752;53.364;-1.488;2023-03-20T04:42:55;99997.91;;;13.73;52.34
29879;BME280;16752;53.364;-1.488;2023-03-20T04:45:39;100024.06;;;13.95;52.83
29879;BME280;16752;53.364;-1.488;2023-03-20T04:48:24;100054.34;;;14.62;51.13
29879;BME280;16752;53.364;-1.488;2023-03-20T04:51:11;100053.97;;;14.15;52.64
29879;BME280;16752;53.364;-1.488;2023-03-20T04:53:54;100080.28;;;14.66;51.79
29879;BME280;16752;53.364;-1.488;2023-03-20T04:56:38;99938.13;;;13.22;52.30
29879;BME280;16752;53.364;-1.488;2023-03-20T04:59:22;100035.47;;;14.66;51.13
29879;BME280;16752;53.364;-1.488;2023-03-20T05:02:07;100035.16;;;13.36;54.78
29879;BME280;16752;53.364;-1.488;2023-03-20T05:04:51;100046.63;;;13.67;53.48
29879;BME280;16752;53.364;-1.488;2023-03-20T05:07:35;100042.31;;;13.45;54.73
29879;BME280;16752;53.364;-1.488;2023-03-20T05:10:19;100031.28;;;13.20;54.64
29879;BME280;16752;53.364;-1.488;2023-03-20T05:13:04;99991.13;;;12.74;55.25
29879;BME280;16752;53.364;-1.488;2023-03-20T05:15:48;100036.13;;;13.98;53.23
29879;BME280;16752;53.364;-1.488;2023-03-20T05:18:32;99981.53;;;13.49;53.72
29879;BME280;16752;53.364;-1.488;2023-03-20T05:21:16;100003.31;;;14.32;51.80
29879;BME280;16752;53.364;-1.488;2023-03-20T05:24:01;100015.84;;;13.26;54.91
29879;BME280;16752;53.364;-1.488;2023-03-20T05:26:45;100079.16;;;15.09;50.86
29879;BME280;16752;53.364;-1.488;2023-03-20T05:29:29;100073.88;;;15.09;50.33
29879;BME280;16752;53.364;-1.488;2023-03-20T05:32:13;100017.41;;;13.91;52.51
29879;BME280;16752;53.364;-1.488;2023-03-20T05:34:57;100056.50;;;13.96;53.77
29879;BME280;16752;53.364;-1.488;2023-03-20T05:37:41;100029.22;;;13.55;54.31
29879;BME280;16752;53.364;-1.488;2023-03-20T05:40:26;100034.56;;;14.16;52.67
29879;BME280;16752;53.364;-1.488;2023-03-20T05:43:10;100008.16;;;14.37;51.90
29879;BME280;16752;53.364;-1.488;2023-03-20T05:45:55;100045.50;;;13.17;55.63
29879;BME280;16752;53.364;-1.488;2023-03-20T05:48:39;100022.72;;;14.72;51.78
29879;BME280;16752;53.364;-1.488;2023-03-20T05:51:23;100040.06;;;13.62;54.65
29879;BME280;16752;53.364;-1.488;2023-03-20T05:54:07;100034.31;;;14.19;52.78
29879;BME280;16752;53.364;-1.488;2023-03-20T05:56:51;100058.41;;;14.76;52.13
29879;BME280;16752;53.364;-1.488;2023-03-20T05:59:35;100026.31;;;14.00;52.77
29879;BME280;16752;53.364;-1.488;2023-03-20T06:02:19;100021.69;;;14.23;53.01
29879;BME280;16752;53.364;-1.488;2023-03-20T06:05:03;100004.72;;;13.23;55.43
29879;BME280;16752;53.364;-1.488;2023-03-20T06:07:47;100015.72;;;13.90;53.67
29879;BME280;16752;53.364;-1.488;2023-03-20T06:10:31;99997.09;;;13.82;53.87
29879;BME280;16752;53.364;-1.488;2023-03-20T06:13:15;99983.97;;;14.13;52.60
29879;BME280;16752;53.364;-1.488;2023-03-20T06:15:59;100014.41;;;14.76;51.51
29879;BME280;16752;53.364;-1.488;2023-03-20T06:18:43;100030.72;;;14.30;52.40
29879;BME280;16752;53.364;-1.488;2023-03-20T06:21:27;99976.75;;;14.15;52.26
29879;BME280;16752;53.364;-1.488;2023-03-20T06:24:11;100028.56;;;14.75;51.58
29879;BME280;16752;53.364;-1.488;2023-03-20T06:26:55;100079.91;;;13.89;54.73
29879;BME280;16752;53.364;-1.488;2023-03-20T06:29:40;100036.13;;;14.28;53.07
29879;BME280;16752;53.364;-1.488;2023-03-20T06:32:24;100046.34;;;14.83;51.91
29879;BME280;16752;53.364;-1.488;2023-03-20T06:35:08;100029.41;;;13.42;54.84
29879;BME280;16752;53.364;-1.488;2023-03-20T06:37:53;100044.16;;;14.17;53.53
29879;BME280;16752;53.364;-1.488;2023-03-20T06:40:37;99992.50;;;15.05;50.30
29879;BME280;16752;53.364;-1.488;2023-03-20T06:43:21;100085.38;;;14.07;54.39
29879;BME280;16752;53.364;-1.488;2023-03-20T06:46:05;99985.94;;;14.70;51.11
29879;BME280;16752;53.364;-1.488;2023-03-20T06:48:50;100098.41;;;14.29;53.95
29879;BME280;16752;53.364;-1.488;2023-03-20T06:51:35;100044.56;;;14.43;52.66
29879;BME280;16752;53.364;-1.488;2023-03-20T06:54:20;99959.84;;;13.87;52.77
29879;BME280;16752;53.364;-1.488;2023-03-20T06:57:04;100067.09;;;15.55;49.86
29879;BME280;16752;53.364;-1.488;2023-03-20T06:59:48;100014.44;;;15.53;49.35
29879;BME280;16752;53.364;-1.488;2023-03-20T07:02:37;100109.41;;;16.21;49.21
29879;BME280;16752;53.364;-1.488;2023-03-20T07:05:21;100108.66;;;15.82;49.78
29879;BME280;16752;53.364;-1.488;2023-03-20T07:08:06;100007.66;;;15.22;50.31
29879;BME280;16752;53.364;-1.488;2023-03-20T07:10:50;100089.88;;;15.27;51.77
29879;BME280;16752;53.364;-1.488;2023-03-20T07:13:34;100116.94;;;16.16;49.54
29879;BME280;16752;53.364;-1.488;2023-03-20T07:16:19;100071.41;;;15.75;50.00
29879;BME280;16752;53.364;-1.488;2023-03-20T07:19:03;100042.22;;;15.86;49.24
29879;BME280;16752;53.364;-1.488;2023-03-20T07:21:48;100034.94;;;15.98;48.95
29879;BME280;16752;53.364;-1.488;2023-03-20T07:24:33;99986.25;;;15.35;49.70
29879;BME280;16752;53.364;-1.488;2023-03-20T07:27:23;100051.56;;;16.18;48.28
29879;BME280;16752;53.364;-1.488;2023-03-20T07:30:48;100123.66;;;16.01;49.92
29879;BME280;16752;53.364;-1.488;2023-03-20T07:33:51;100127.13;;;16.11;50.16
29879;BME280;16752;53.364;-1.488;2023-03-20T07:37:10;100122.09;;;16.27;49.81
29879;BME280;16752;53.364;-1.488;2023-03-20T07:40:23;99984.19;;;14.40;52.40
29879;BME280;16752;53.364;-1.488;2023-03-20T07:59:10;100120.16;;;16.66;49.82
29879;BME280;16752;53.364;-1.488;2023-03-20T08:01:57;100003.03;;;16.46;48.55
29879;BME280;16752;53.364;-1.488;2023-03-20T08:04:43;99962.53;;;16.18;48.43
29879;BME280;16752;53.364;-1.488;2023-03-20T08:07:27;99958.69;;;15.56;50.25
29879;BME280;16752;53.364;-1.488;2023-03-20T08:10:14;100107.59;;;16.22;51.33
29879;BME280;16752;53.364;-1.488;2023-03-20T08:13:01;100067.22;;;16.76;49.14
29879;BME280;16752;53.364;-1.488;2023-03-20T08:15:46;100081.84;;;16.33;50.99
29879;BME280;16752;53.364;-1.488;2023-03-20T08:18:30;100082.22;;;17.03;49.39
29879;BME280;16752;53.364;-1.488;2023-03-20T08:21:14;100016.75;;;16.60;49.25
29879;BME280;16752;53.364;-1.488;2023-03-20T08:24:00;100087.06;;;17.07;49.46
29879;BME280;16752;53.364;-1.488;2023-03-20T08:26:44;100041.97;;;16.82;49.22
29879;BME280;16752;53.364;-1.488;2023-03-20T08:29:29;100096.03;;;17.24;49.30
29879;BME280;16752;53.364;-1.488;2023-03-20T08:32:13;100019.69;;;16.57;50.25
29879;BME280;16752;53.364;-1.488;2023-03-20T08:35:00;99984.03;;;16.61;49.40
29879;BME280;16752;53.364;-1.488;2023-03-20T08:37:54;100028.28;;;16.59;50.23
29879;BME280;16752;53.364;-1.488;2023-03-20T08:40:44;99962.91;;;16.06;50.56
29879;BME280;16752;53.364;-1.488;2023-03-20T08:43:30;100111.66;;;16.16;52.67
29879;BME280;16752;53.364;-1.488;2023-03-20T08:46:14;100033.13;;;16.91;49.53
29879;BME280;16752;53.364;-1.488;2023-03-20T08:48:59;100029.47;;;17.37;48.34
29879;BME280;16752;53.364;-1.488;2023-03-20T08:51:52;100121.22;;;17.99;47.79
29879;BME280;16752;53.364;-1.488;2023-03-20T08:54:43;100087.56;;;17.21;49.64
29879;BME280;16752;53.364;-1.488;2023-03-20T08:57:27;100028.41;;;16.94;49.41
29879;BME280;16752;53.364;-1.488;2023-03-20T09:00:12;100044.13;;;17.49;48.22
29879;BME280;16752;53.364;-1.488;2023-03-20T09:02:58;99995.66;;;16.50;49.71
29879;BME280;16752;53.364;-1.488;2023-03-20T09:05:44;100081.72;;;17.17;49.94
29879;BME280;16752;53.364;-1.488;2023-03-20T09:08:29;100069.75;;;17.13;50.29
29879;BME280;16752;53.364;-1.488;2023-03-20T09:11:15;100132.44;;;17.40;50.40
29879;BME280;16752;53.364;-1.488;2023-03-20T09:14:02;100057.72;;;17.90;48.26
29879;BME280;16752;53.364;-1.488;2023-03-20T09:16:50;100101.34;;;18.55;47.12
29879;BME280;16752;53.364;-1.488;2023-03-20T09:19:51;100051.25;;;17.31;49.76
29879;BME280;16752;53.364;-1.488;2023-03-20T09:22:36;100002.91;;;16.66;50.43
29879;BME280;16752;53.364;-1.488;2023-03-20T09:25:21;100001.25;;;16.92;49.79
29879;BME280;16752;53.364;-1.488;2023-03-20T09:28:11;99990.66;;;17.28;48.93
29879;BME280;16752;53.364;-1.488;2023-03-20T09:30:57;100045.94;;;17.13;50.81
29879;BME280;16752;53.364;-1.488;2023-03-20T09:33:41;100125.56;;;18.26;48.34
29879;BME280;16752;53.364;-1.488;2023-03-20T09:36:27;100073.13;;;18.46;47.55
29879;BME280;16752;53.364;-1.488;2023-03-20T09:41:52;100026.69;;;17.64;48.97
29879;BME280;16752;53.364;-1.488;2023-03-20T09:51:49;100009.41;;;17.34;49.20
29879;BME280;16752;53.364;-1.488;2023-03-20T09:54:41;100031.69;;;18.45;47.04
29879;BME280;16752;53.364;-1.488;2023-03-20T09:57:31;100083.72;;;18.72;46.98
29879;BME280;16752;53.364;-1.488;2023-03-20T10:00:27;100061.81;;;17.84;48.24
29879;BME280;16752;53.364;-1.488;2023-03-20T10:06:23;100075.84;;;17.59;49.51
29879;BME280;16752;53.364;-1.488;2023-03-20T10:09:24;100130.53;;;19.32;46.47
29879;BME280;16752;53.364;-1.488;2023-03-20T10:12:28;100149.66;;;18.93;47.66
29879;BME280;16752;53.364;-1.488;2023-03-20T10:15:39;100085.03;;;18.42;47.89
29879;BME280;16752;53.364;-1.488;2023-03-20T10:18:29;100147.84;;;18.93;48.02
29879;BME280;16752;53.364;-1.488;2023-03-20T10:21:20;100107.72;;;18.37;48.67
29879;BME280;16752;53.364;-1.488;2023-03-20T10:24:16;100151.91;;;18.54;48.69
29879;BME280;16752;53.364;-1.488;2023-03-20T10:27:28;100009.59;;;18.02;47.77
29879;BME280;16752;53.364;-1.488;2023-03-20T10:34:29;100168.19;;;18.59;49.58
29879;BME280;16752;53.364;-1.488;2023-03-20T10:43:59;100158.72;;;18.82;48.73
29879;BME280;16752;53.364;-1.488;2023-03-20T10:57:57;100050.72;;;18.83;46.83
29879;BME280;16752;53.364;-1.488;2023-03-20T11:00:57;100155.03;;;19.92;46.12
29879;BME280;16752;53.364;-1.488;2023-03-20T11:06:48;100018.09;;;19.07;45.83
29879;BME280;16752;53.364;-1.488;2023-03-20T11:09:39;100110.00;;;20.79;43.58
29879;BME280;16752;53.364;-1.488;2023-03-20T11:12:23;100092.47;;;20.37;44.21
29879;BME280;16752;53.364;-1.488;2023-03-20T11:15:32;100149.25;;;20.85;43.21
29879;BME280;16752;53.364;-1.488;2023-03-20T11:18:17;100045.94;;;20.33;43.59
29879;BME280;16752;53.364;-1.488;2023-03-20T11:21:28;100138.75;;;21.22;42.98
29879;BME280;16752;53.364;-1.488;2023-03-20T11:27:08;100050.16;;;20.97;43.00
29879;BME280;16752;53.364;-1.488;2023-03-20T11:35:56;100073.41;;;20.25;44.08
29879;BME280;16752;53.364;-1.488;2023-03-20T11:38:44;100084.09;;;19.84;45.05
29879;BME280;16752;53.364;-1.488;2023-03-20T11:41:32;100093.59;;;20.59;44.67
29879;BME280;16752;53.364;-1.488;2023-03-20T11:44:22;100062.19;;;20.54;44.00
29879;BME280;16752;53.364;-1.488;2023-03-20T11:47:14;100057.16;;;20.59;43.87
29879;BME280;16752;53.364;-1.488;2023-03-20T11:50:03;100132.00;;;21.12;43.12
29879;BME280;16752;53.364;-1.488;2023-03-20T11:52:52;100131.25;;;21.80;41.31
29879;BME280;16752;53.364;-1.488;2023-03-20T11:55:39;100131.81;;;21.13;43.06
29879;BME280;16752;53.364;-1.488;2023-03-20T12:01:47;100134.00;;;21.10;43.63
29879;BME280;16752;53.364;-1.488;2023-03-20T12:04:35;100126.78;;;20.24;45.86
29879;BME280;16752;53.364;-1.488;2023-03-20T12:07:32;100129.72;;;20.37;44.88
29879;BME280;16752;53.364;-1.488;2023-03-20T12:10:18;100051.59;;;20.46;44.90
29879;BME280;16752;53.364;-1.488;2023-03-20T12:13:24;100050.19;;;19.87;44.79
29879;BME280;16752;53.364;-1.488;2023-03-20T12:16:21;100121.69;;;21.09;44.33
29879;BME280;16752;53.364;-1.488;2023-03-20T12:19:19;100121.34;;;20.72;44.42
29879;BME280;16752;53.364;-1.488;2023-03-20T12:22:34;100116.66;;;21.67;42.79
29879;BME280;16752;53.364;-1.488;2023-03-20T12:25:54;100089.78;;;21.54;42.39
29879;BME280;16752;53.364;-1.488;2023-03-20T12:32:32;100060.06;;;20.81;43.21
29879;BME280;16752;53.364;-1.488;2023-03-20T12:35:46;99992.03;;;21.32;41.59
29879;BME280;16752;53.364;-1.488;2023-03-20T12:44:58;100126.66;;;20.72;43.94
29879;BME280;16752;53.364;-1.488;2023-03-20T12:54:18;100050.69;;;21.47;41.34
29879;BME280;16752;53.364;-1.488;2023-03-20T12:57:21;100108.69;;;20.74;44.19
29879;BME280;16752;53.364;-1.488;2023-03-20T13:03:46;99982.78;;;20.66;42.64
29879;BME280;16752;53.364;-1.488;2023-03-20T13:06:53;99975.56;;;21.05;41.61
29879;BME280;16752;53.364;-1.488;2023-03-20T13:19:31;100107.16;;;21.50;41.96
29879;BME280;16752;53.364;-1.488;2023-03-20T13:22:34;100093.31;;;21.47;42.58
29879;BME280;16752;53.364;-1.488;2023-03-20T13:41:45;99934.59;;;21.29;40.60
29879;BME280;16752;53.364;-1.488;2023-03-20T13:45:34;100082.16;;;22.85;40.02
29879;BME280;16752;53.364;-1.488;2023-03-20T13:48:40;99948.38;;;22.15;40.24
29879;BME280;16752;53.364;-1.488;2023-03-20T14:00:58;100072.38;;;21.81;39.92
29879;BME280;16752;53.364;-1.488;2023-03-20T14:03:54;99912.41;;;21.52;38.72
29879;BME280;16752;53.364;-1.488;2023-03-20T14:06:57;100065.84;;;22.51;38.31
29879;BME280;16752;53.364;-1.488;2023-03-20T14:09:42;100073.00;;;21.69;39.80
29879;BME280;16752;53.364;-1.488;2023-03-20T14:12:32;99934.38;;;21.83;37.85
29879;BME280;16752;53.364;-1.488;2023-03-20T14:15:18;100047.81;;;22.09;38.24
29879;BME280;16752;53.364;-1.488;2023-03-20T14:18:12;99950.88;;;22.52;37.20
29879;BME280;16752;53.364;-1.488;2023-03-20T14:21:04;100050.03;;;23.58;35.59
29879;BME280;16752;53.364;-1.488;2023-03-20T14:24:06;99906.56;;;22.37;37.05
29879;BME280;16752;53.364;-1.488;2023-03-20T14:27:13;100052.31;;;22.82;36.68
29879;BME280;16752;53.364;-1.488;2023-03-20T14:32:52;100034.50;;;23.25;34.49
29879;BME280;16752;53.364;-1.488;2023-03-20T14:35:50;100013.22;;;23.17;34.51
29879;BME280;16752;53.364;-1.488;2023-03-20T14:45:17;100057.91;;;23.44;35.22
29879;BME280;16752;53.364;-1.488;2023-03-20T14:54:39;99973.84;;;23.04;34.62
29879;BME280;16752;53.364;-1.488;2023-03-20T14:57:32;99993.34;;;22.33;36.85
29879;BME280;16752;53.364;-1.488;2023-03-20T15:00:26;100046.19;;;21.24;38.65
29879;BME280;16752;53.364;-1.488;2023-03-20T15:03:14;99963.53;;;22.00;37.47
29879;BME280;16752;53.364;-1.488;2023-03-20T15:06:23;99915.78;;;21.08;37.13
29879;BME280;16752;53.364;-1.488;2023-03-20T15:09:11;99889.22;;;21.96;36.56
29879;BME280;16752;53.364;-1.488;2023-03-20T15:12:02;100009.56;;;21.64;37.66
29879;BME280;16752;53.364;-1.488;2023-03-20T15:20:25;99988.25;;;23.03;35.51
29879;BME280;16752;53.364;-1.488;2023-03-20T15:23:12;99988.25;;;24.50;33.06
29879;BME280;16752;53.364;-1.488;2023-03-20T15:58:57;100013.75;;;23.06;35.82
29879;BME280;16752;53.364;-1.488;2023-03-20T16:02:14;99928.78;;;22.08;37.17
29879;BME280;16752;53.364;-1.488;2023-03-20T16:16:22;100005.91;;;22.53;37.07
29879;BME280;16752;53.364;-1.488;2023-03-20T16:26:00;99841.13;;;20.56;39.37
29879;BME280;16752;53.364;-1.488;2023-03-20T16:28:56;99979.97;;;21.88;39.32
29879;BME280;16752;53.364;-1.488;2023-03-20T16:35:41;99867.53;;;21.03;40.04
29879;BME280;16752;53.364;-1.488;2023-03-20T16:39:04;99956.19;;;22.16;39.16
29879;BME280;16752;53.364;-1.488;2023-03-20T16:42:23;99845.56;;;20.63;40.56
29879;BME280;16752;53.364;-1.488;2023-03-20T16:56:50;99920.81;;;21.26;40.61
29879;BME280;16752;53.364;-1.488;2023-03-20T16:59:39;99901.09;;;21.50;40.10
29879;BME280;16752;53.364;-1.488;2023-03-20T17:02:48;99903.00;;;21.41;40.62
29879;BME280;16752;53.364;-1.488;2023-03-20T17:05:47;99925.72;;;21.52;41.13
29879;BME280;16752;53.364;-1.488;2023-03-20T17:08:41;99980.19;;;22.02;40.37
29879;BME280;16752;53.364;-1.488;2023-03-20T17:11:34;99922.06;;;21.82;40.48
29879;BME280;16752;53.364;-1.488;2023-03-20T17:14:18;99902.66;;;21.21;41.63
29879;BME280;16752;53.364;-1.488;2023-03-20T17:17:02;99860.63;;;21.31;40.89
29879;BME280;16752;53.364;-1.488;2023-03-20T17:19:47;99888.91;;;20.95;42.23
29879;BME280;16752;53.364;-1.488;2023-03-20T17:22:35;99834.25;;;20.07;43.49
29879;BME280;16752;53.364;-1.488;2023-03-20T17:25:20;99934.38;;;21.54;41.35
29879;BME280;16752;53.364;-1.488;2023-03-20T17:28:04;99855.50;;;21.30;40.92
29879;BME280;16752;53.364;-1.488;2023-03-20T17:30:54;99806.53;;;20.56;42.29
29879;BME280;16752;53.364;-1.488;2023-03-20T17:33:41;99806.50;;;20.79;41.70
29879;BME280;16752;53.364;-1.488;2023-03-20T17:36:31;99928.38;;;21.14;42.54
29879;BME280;16752;53.364;-1.488;2023-03-20T17:39:31;99905.41;;;20.36;43.69
29879;BME280;16752;53.364;-1.488;2023-03-20T17:42:24;99982.72;;;21.05;43.82
29879;BME280;16752;53.364;-1.488;2023-03-20T17:45:16;99901.47;;;20.86;42.99
29879;BME280;16752;53.364;-1.488;2023-03-20T17:48:01;99960.22;;;20.85;43.91
29879;BME280;16752;53.364;-1.488;2023-03-20T17:50:47;99840.88;;;20.11;43.96
29879;BME280;16752;53.364;-1.488;2023-03-20T17:53:33;99982.19;;;21.32;43.18
29879;BME280;16752;53.364;-1.488;2023-03-20T17:56:17;99933.78;;;20.52;44.66
29879;BME280;16752;53.364;-1.488;2023-03-20T17:59:04;99992.25;;;20.68;45.65
29879;BME280;16752;53.364;-1.488;2023-03-20T18:01:49;99931.22;;;19.97;46.73
29879;BME280;16752;53.364;-1.488;2023-03-20T18:04:34;99980.34;;;21.10;45.21
29879;BME280;16752;53.364;-1.488;2023-03-20T18:07:18;99962.16;;;20.91;45.67
29879;BME280;16752;53.364;-1.488;2023-03-20T18:10:05;99976.13;;;20.70;46.95
29879;BME280;16752;53.364;-1.488;2023-03-20T18:12:57;99914.44;;;19.96;47.88
29879;BME280;16752;53.364;-1.488;2023-03-20T18:15:41;99889.94;;;18.56;51.49
29879;BME280;16752;53.364;-1.488;2023-03-20T18:18:27;99864.16;;;18.66;51.53
29879;BME280;16752;53.364;-1.488;2023-03-20T18:21:13;99956.38;;;20.56;47.79
29879;BME280;16752;53.364;-1.488;2023-03-20T18:23:59;99941.06;;;20.27;48.51
29879;BME280;16752;53.364;-1.488;2023-03-20T18:26:43;99859.06;;;19.44;49.45
29879;BME280;16752;53.364;-1.488;2023-03-20T18:29:29;99984.06;;;20.47;48.72
29879;BME280;16752;53.364;-1.488;2023-03-20T18:32:15;99942.44;;;19.35;51.21
29879;BME280;16752;53.364;-1.488;2023-03-20T18:34:59;99855.69;;;18.87;50.96
29879;BME280;16752;53.364;-1.488;2023-03-20T18:37:48;99875.38;;;19.25;50.54
29879;BME280;16752;53.364;-1.488;2023-03-20T18:40:38;99988.38;;;20.01;49.77
29879;BME280;16752;53.364;-1.488;2023-03-20T18:43:26;99924.84;;;18.93;51.89
29879;BME280;16752;53.364;-1.488;2023-03-20T18:46:15;99874.63;;;18.17;52.84
29879;BME280;16752;53.364;-1.488;2023-03-20T18:49:00;99848.56;;;18.87;50.52
29879;BME280;16752;53.364;-1.488;2023-03-20T18:51:45;99922.38;;;18.25;53.30